sensor_id;sensor_type;location;lat;lon;timestamp;pressure;altitude;pressure_sealevel;temperature;humidity
46464;BME280;32161;48.148;-1.554;2023-02-12T00:00:55;102911.78;;;5.21;95.04
46464;BME280;32161;48.148;-1.554;2023-02-12T00:03:23;102914.38;;;5.23;94.90
46464;BME280;32161;48.148;-1.554;2023-02-12T00:05:50;102915.78;;;5.27;94.49
46464;BME280;32161;48.148;-1.554;2023-02-12T00:08:18;102907.38;;;5.30;94.09
46464;BME280;32161;48.148;-1.554;2023-02-12T00:10:45;102908.25;;;5.21;94.23
46464;BME280;32161;48.148;-1.554;2023-02-12T00:13:13;102901.44;;;5.17;94.30
46464;BME280;32161;48.148;-1.554;2023-02-12T00:15:42;102900.16;;;5.21;94.26
46464;BME280;32161;48.148;-1.554;2023-02-12T00:18:10;102892.78;;;5.23;94.69
46464;BME280;32161;48.148;-1.554;2023-02-12T00:20:38;102887.09;;;5.26;94.45
46464;BME280;32161;48.148;-1.554;2023-02-12T00:23:06;102899.03;;;5.23;94.61
46464;BME280;32161;48.148;-1.554;2023-02-12T00:25:33;102894.03;;;5.19;94.75
46464;BME280;32161;48.148;-1.554;2023-02-12T00:28:01;102889.53;;;5.19;94.85
46464;BME280;32161;48.148;-1.554;2023-02-12T00:30:28;102894.34;;;5.16;95.33
46464;BME280;32161;48.148;-1.554;2023-02-12T00:32:57;102893.19;;;5.18;95.41
46464;BME280;32161;48.148;-1.554;2023-02-12T00:35:25;102904.28;;;5.25;95.23
46464;BME280;32161;48.148;-1.554;2023-02-12T00:37:52;102892.47;;;5.26;95.14
46464;BME280;32161;48.148;-1.554;2023-02-12T00:40:20;102890.78;;;5.25;95.03
46464;BME280;32161;48.148;-1.554;2023-02-12T00:42:47;102904.56;;;5.22;95.53
46464;BME280;32161;48.148;-1.554;2023-02-12T00:45:15;102903.13;;;5.18;95.63
46464;BME280;32161;48.148;-1.554;2023-02-12T00:47:43;102905.13;;;5.25;95.83
46464;BME280;32161;48.148;-1.554;2023-02-12T00:50:12;102894.50;;;5.24;95.72
46464;BME280;32161;48.148;-1.554;2023-02-12T00:52:39;102904.56;;;5.22;95.97
46464;BME280;32161;48.148;-1.554;2023-02-12T00:55:07;102905.84;;;5.27;95.63
46464;BME280;32161;48.148;-1.554;2023-02-12T00:57:35;102905.25;;;5.33;95.39
46464;BME280;32161;48.148;-1.554;2023-02-12T01:00:04;102905.84;;;5.27;95.85
46464;BME280;32161;48.148;-1.554;2023-02-12T01:02:31;102902.31;;;5.27;95.88
46464;BME280;32161;48.148;-1.554;2023-02-12T01:04:59;102909.09;;;5.31;96.29
46464;BME280;32161;48.148;-1.554;2023-02-12T01:07:28;102903.00;;;5.29;96.05
46464;BME280;32161;48.148;-1.554;2023-02-12T01:09:55;102891.34;;;5.28;96.00
46464;BME280;32161;48.148;-1.554;2023-02-12T01:12:23;102891.78;;;5.24;96.30
46464;BME280;32161;48.148;-1.554;2023-02-12T01:14:50;102893.06;;;5.29;96.19
46464;BME280;32161;48.148;-1.554;2023-02-12T01:17:18;102890.22;;;5.31;96.21
46464;BME280;32161;48.148;-1.554;2023-02-12T01:19:45;102884.28;;;5.27;95.76
46464;BME280;32161;48.148;-1.554;2023-02-12T01:22:13;102890.22;;;5.31;95.52
46464;BME280;32161;48.148;-1.554;2023-02-12T01:24:42;102883.13;;;5.30;95.83
46464;BME280;32161;48.148;-1.554;2023-02-12T01:27:09;102880.28;;;5.31;95.98
46464;BME280;32161;48.148;-1.554;2023-02-12T01:29:37;102882.41;;;5.28;96.06
46464;BME280;32161;48.148;-1.554;2023-02-12T01:32:05;102886.13;;;5.27;96.25
46464;BME280;32161;48.148;-1.554;2023-02-12T01:34:32;102886.53;;;5.32;96.24
46464;BME280;32161;48.148;-1.554;2023-02-12T01:37:00;102879.72;;;5.28;95.74
46464;BME280;32161;48.148;-1.554;2023-02-12T01:39:27;102874.47;;;5.26;95.72
46464;BME280;32161;48.148;-1.554;2023-02-12T01:41:56;102870.63;;;5.29;95.73
46464;BME280;32161;48.148;-1.554;2023-02-12T01:44:28;102869.94;;;5.27;95.79
46464;BME280;32161;48.148;-1.554;2023-02-12T01:46:58;102859.69;;;5.30;96.01
46464;BME280;32161;48.148;-1.554;2023-02-12T01:49:29;102866.53;;;5.25;96.13
46464;BME280;32161;48.148;-1.554;2023-02-12T01:52:02;102860.56;;;5.21;96.08
46464;BME280;32161;48.148;-1.554;2023-02-12T01:54:33;102853.31;;;5.22;95.77
46464;BME280;32161;48.148;-1.554;2023-02-12T01:57:04;102859.56;;;5.22;95.90
46464;BME280;32161;48.148;-1.554;2023-02-12T01:59:32;102852.19;;;5.24;96.12
46464;BME280;32161;48.148;-1.554;2023-02-12T02:02:02;102855.59;;;5.26;95.61
46464;BME280;32161;48.148;-1.554;2023-02-12T02:04:42;102845.41;;;5.20;95.70
46464;BME280;32161;48.148;-1.554;2023-02-12T02:07:12;102843.81;;;5.18;95.52
46464;BME280;32161;48.148;-1.554;2023-02-12T02:09:40;102851.91;;;5.18;95.05
46464;BME280;32161;48.148;-1.554;2023-02-12T02:12:10;102847.81;;;5.13;95.02
46464;BME280;32161;48.148;-1.554;2023-02-12T02:14:56;102837.75;;;5.16;95.25
46464;BME280;32161;48.148;-1.554;2023-02-12T02:17:46;102839.72;;;5.23;94.33
46464;BME280;32161;48.148;-1.554;2023-02-12T02:20:52;102838.72;;;5.14;94.78
46464;BME280;32161;48.148;-1.554;2023-02-12T02:24:13;102835.88;;;5.16;94.86
46464;BME280;32161;48.148;-1.554;2023-02-12T02:30:43;102838.00;;;5.03;94.83
46464;BME280;32161;48.148;-1.554;2023-02-12T02:33:27;102839.44;;;4.97;95.06
46464;BME280;32161;48.148;-1.554;2023-02-12T02:36:12;102835.47;;;5.01;94.84
46464;BME280;32161;48.148;-1.554;2023-02-12T02:38:44;102840.28;;;4.98;94.70
46464;BME280;32161;48.148;-1.554;2023-02-12T02:41:19;102836.47;;;5.00;94.58
46464;BME280;32161;48.148;-1.554;2023-02-12T02:43:52;102839.72;;;4.94;94.63
46464;BME280;32161;48.148;-1.554;2023-02-12T02:46:26;102836.34;;;4.92;94.36
46464;BME280;32161;48.148;-1.554;2023-02-12T02:48:59;102827.25;;;4.93;94.15
46464;BME280;32161;48.148;-1.554;2023-02-12T02:51:32;102824.56;;;4.93;94.20
46464;BME280;32161;48.148;-1.554;2023-02-12T02:54:07;102824.56;;;4.93;94.82
46464;BME280;32161;48.148;-1.554;2023-02-12T02:56:39;102829.78;;;4.95;95.16
46464;BME280;32161;48.148;-1.554;2023-02-12T02:59:11;102831.63;;;4.94;94.83
46464;BME280;32161;48.148;-1.554;2023-02-12T03:01:45;102826.41;;;4.93;94.89
46464;BME280;32161;48.148;-1.554;2023-02-12T03:04:18;102824.41;;;4.95;94.80
46464;BME280;32161;48.148;-1.554;2023-02-12T03:06:52;102815.47;;;4.94;94.47
46464;BME280;32161;48.148;-1.554;2023-02-12T03:09:26;102812.06;;;4.92;95.14
46464;BME280;32161;48.148;-1.554;2023-02-12T03:12:02;102815.63;;;4.93;95.39
46464;BME280;32161;48.148;-1.554;2023-02-12T03:14:35;102809.91;;;4.96;95.44
46464;BME280;32161;48.148;-1.554;2023-02-12T03:17:11;102807.09;;;4.97;95.75
46464;BME280;32161;48.148;-1.554;2023-02-12T03:19:45;102814.34;;;4.97;95.81
46464;BME280;32161;48.148;-1.554;2023-02-12T03:22:17;102811.34;;;4.90;96.17
46464;BME280;32161;48.148;-1.554;2023-02-12T03:24:52;102808.50;;;4.92;96.42
46464;BME280;32161;48.148;-1.554;2023-02-12T03:27:28;102810.06;;;4.94;96.45
46464;BME280;32161;48.148;-1.554;2023-02-12T03:29:57;102806.94;;;4.99;96.47
46464;BME280;32161;48.148;-1.554;2023-02-12T03:32:32;102809.78;;;4.97;96.73
46464;BME280;32161;48.148;-1.554;2023-02-12T03:35:13;102805.94;;;5.09;97.01
46464;BME280;32161;48.148;-1.554;2023-02-12T03:37:50;102808.66;;;5.09;96.65
46464;BME280;32161;48.148;-1.554;2023-02-12T03:40:28;102807.50;;;5.02;96.41
46464;BME280;32161;48.148;-1.554;2023-02-12T03:43:03;102800.84;;;5.06;96.34
46464;BME280;32161;48.148;-1.554;2023-02-12T03:45:41;102802.56;;;5.07;96.50
46464;BME280;32161;48.148;-1.554;2023-02-12T03:48:19;102803.41;;;5.08;96.15
46464;BME280;32161;48.148;-1.554;2023-02-12T03:50:53;102800.59;;;5.00;96.83
46464;BME280;32161;48.148;-1.554;2023-02-12T03:53:24;102802.28;;;5.01;96.82
46464;BME280;32161;48.148;-1.554;2023-02-12T03:55:55;102800.59;;;5.00;96.44
46464;BME280;32161;48.148;-1.554;2023-02-12T03:58:28;102798.31;;;5.05;96.17
46464;BME280;32161;48.148;-1.554;2023-02-12T04:00:59;102796.44;;;5.05;96.39
46464;BME280;32161;48.148;-1.554;2023-02-12T04:03:29;102798.59;;;5.02;96.64
46464;BME280;32161;48.148;-1.554;2023-02-12T04:05:57;102802.69;;;4.86;97.25
46464;BME280;32161;48.148;-1.554;2023-02-12T04:08:26;102792.06;;;4.95;98.05
46464;BME280;32161;48.148;-1.554;2023-02-12T04:11:04;102796.59;;;4.94;97.94
46464;BME280;32161;48.148;-1.554;2023-02-12T04:13:41;102799.44;;;4.93;97.69
46464;BME280;32161;48.148;-1.554;2023-02-12T04:16:21;102806.81;;;5.00;97.26
46464;BME280;32161;48.148;-1.554;2023-02-12T04:18:53;102803.28;;;5.00;96.42
46464;BME280;32161;48.148;-1.554;2023-02-12T04:21:39;102803.28;;;5.00;96.60
46464;BME280;32161;48.148;-1.554;2023-02-12T04:24:17;102808.09;;;4.96;96.67
46464;BME280;32161;48.148;-1.554;2023-02-12T04:26:50;102811.38;;;5.00;96.70
46464;BME280;32161;48.148;-1.554;2023-02-12T04:29:27;102811.38;;;5.00;96.32
46464;BME280;32161;48.148;-1.554;2023-02-12T04:32:05;102814.59;;;5.03;96.06
46464;BME280;32161;48.148;-1.554;2023-02-12T04:34:44;102818.72;;;4.98;95.79
46464;BME280;32161;48.148;-1.554;2023-02-12T04:37:21;102812.50;;;4.97;96.23
46464;BME280;32161;48.148;-1.554;2023-02-12T04:39:51;102811.38;;;5.00;95.91
46464;BME280;32161;48.148;-1.554;2023-02-12T04:42:19;102819.56;;;4.98;96.16
46464;BME280;32161;48.148;-1.554;2023-02-12T04:44:47;102805.97;;;5.00;96.15
46464;BME280;32161;48.148;-1.554;2023-02-12T04:47:16;102808.66;;;5.00;96.42
46464;BME280;32161;48.148;-1.554;2023-02-12T04:49:45;102810.22;;;5.02;96.42
46464;BME280;32161;48.148;-1.554;2023-02-12T04:52:12;102814.75;;;5.02;96.32
46464;BME280;32161;48.148;-1.554;2023-02-12T04:54:40;102816.59;;;5.01;95.86
46464;BME280;32161;48.148;-1.554;2023-02-12T04:57:08;102807.50;;;5.02;96.02
46464;BME280;32161;48.148;-1.554;2023-02-12T04:59:35;102815.88;;;4.99;95.88
46464;BME280;32161;48.148;-1.554;2023-02-12T05:02:03;102808.94;;;4.97;96.25
46464;BME280;32161;48.148;-1.554;2023-02-12T05:04:30;102817.88;;;4.97;96.42
46464;BME280;32161;48.148;-1.554;2023-02-12T05:06:59;102820.41;;;4.99;96.44
46464;BME280;32161;48.148;-1.554;2023-02-12T05:09:27;102810.81;;;4.96;96.76
46464;BME280;32161;48.148;-1.554;2023-02-12T05:11:54;102825.56;;;4.92;96.24
46464;BME280;32161;48.148;-1.554;2023-02-12T05:14:23;102827.09;;;4.95;96.69
46464;BME280;32161;48.148;-1.554;2023-02-12T05:16:51;102826.97;;;4.96;96.48
46464;BME280;32161;48.148;-1.554;2023-02-12T05:19:19;102824.28;;;4.96;96.44
46464;BME280;32161;48.148;-1.554;2023-02-12T05:21:49;102824.28;;;4.96;96.29
46464;BME280;32161;48.148;-1.554;2023-02-12T05:24:18;102821.56;;;4.96;96.03
46464;BME280;32161;48.148;-1.554;2023-02-12T05:26:47;102822.53;;;4.95;96.21
46464;BME280;32161;48.148;-1.554;2023-02-12T05:29:15;102821.72;;;4.85;95.96
46464;BME280;32161;48.148;-1.554;2023-02-12T05:31:43;102822.69;;;4.84;96.47
46464;BME280;32161;48.148;-1.554;2023-02-12T05:34:12;102819.59;;;4.88;96.41
46464;BME280;32161;48.148;-1.554;2023-02-12T05:36:39;102826.53;;;4.91;96.05
46464;BME280;32161;48.148;-1.554;2023-02-12T05:39:07;102819.44;;;4.90;95.64
46464;BME280;32161;48.148;-1.554;2023-02-12T05:41:36;102823.81;;;4.91;95.56
46464;BME280;32161;48.148;-1.554;2023-02-12T05:44:04;102818.16;;;4.94;95.03
46464;BME280;32161;48.148;-1.554;2023-02-12T05:46:33;102822.69;;;4.94;95.09
46464;BME280;32161;48.148;-1.554;2023-02-12T05:49:00;102819.59;;;4.88;95.55
46464;BME280;32161;48.148;-1.554;2023-02-12T05:51:29;102824.41;;;4.85;95.78
46464;BME280;32161;48.148;-1.554;2023-02-12T05:54:01;102823.84;;;4.81;95.62
46464;BME280;32161;48.148;-1.554;2023-02-12T05:56:31;102823.84;;;4.81;95.95
46464;BME280;32161;48.148;-1.554;2023-02-12T05:59:03;102830.34;;;4.79;95.64
46464;BME280;32161;48.148;-1.554;2023-02-12T06:01:33;102825.81;;;4.79;95.77
46464;BME280;32161;48.148;-1.554;2023-02-12T06:04:03;102826.97;;;4.77;95.95
46464;BME280;32161;48.148;-1.554;2023-02-12T06:06:32;102827.25;;;4.74;95.33
46464;BME280;32161;48.148;-1.554;2023-02-12T06:09:01;102821.84;;;4.74;94.98
46464;BME280;32161;48.148;-1.554;2023-02-12T06:11:28;102829.22;;;4.72;95.57
46464;BME280;32161;48.148;-1.554;2023-02-12T06:13:56;102820.28;;;4.71;94.78
46464;BME280;32161;48.148;-1.554;2023-02-12T06:16:27;102822.41;;;4.68;95.41
46464;BME280;32161;48.148;-1.554;2023-02-12T06:18:56;102816.00;;;4.69;95.32
46464;BME280;32161;48.148;-1.554;2023-02-12T06:21:25;102815.31;;;4.67;95.06
46464;BME280;32161;48.148;-1.554;2023-02-12T06:23:54;102801.97;;;4.65;95.40
46464;BME280;32161;48.148;-1.554;2023-02-12T06:26:22;102807.34;;;4.65;95.10
46464;BME280;32161;48.148;-1.554;2023-02-12T06:28:50;102810.78;;;4.67;94.71
46464;BME280;32161;48.148;-1.554;2023-02-12T06:31:21;102796.88;;;4.62;94.83
46464;BME280;32161;48.148;-1.554;2023-02-12T06:33:52;102803.41;;;4.59;94.98
46464;BME280;32161;48.148;-1.554;2023-02-12T06:36:20;102798.00;;;4.59;94.61
46464;BME280;32161;48.148;-1.554;2023-02-12T06:38:49;102810.47;;;4.60;95.16
46464;BME280;32161;48.148;-1.554;2023-02-12T06:41:17;102803.66;;;4.56;95.26
46464;BME280;32161;48.148;-1.554;2023-02-12T06:43:44;102800.28;;;4.54;94.56
46464;BME280;32161;48.148;-1.554;2023-02-12T06:46:13;102804.25;;;4.50;94.79
46464;BME280;32161;48.148;-1.554;2023-02-12T06:48:41;102818.28;;;4.54;94.89
46464;BME280;32161;48.148;-1.554;2023-02-12T06:51:13;102810.06;;;4.55;94.76
46464;BME280;32161;48.148;-1.554;2023-02-12T06:53:41;102809.06;;;4.56;95.24
46464;BME280;32161;48.148;-1.554;2023-02-12T06:56:11;102816.44;;;4.54;95.34
46464;BME280;32161;48.148;-1.554;2023-02-12T06:58:41;102817.28;;;4.55;94.56
46464;BME280;32161;48.148;-1.554;2023-02-12T07:01:10;102821.09;;;4.52;94.34
46464;BME280;32161;48.148;-1.554;2023-02-12T07:03:39;102825.50;;;4.53;94.03
46464;BME280;32161;48.148;-1.554;2023-02-12T07:06:10;102821.94;;;4.53;94.04
46464;BME280;32161;48.148;-1.554;2023-02-12T07:08:37;102827.06;;;4.46;94.20
46464;BME280;32161;48.148;-1.554;2023-02-12T07:11:06;102822.53;;;4.47;93.96
46464;BME280;32161;48.148;-1.554;2023-02-12T07:13:33;102819.25;;;4.43;94.23
46464;BME280;32161;48.148;-1.554;2023-02-12T07:16:06;102817.56;;;4.42;94.85
46464;BME280;32161;48.148;-1.554;2023-02-12T07:18:35;102819.94;;;4.35;94.70
46464;BME280;32161;48.148;-1.554;2023-02-12T07:21:05;102816.41;;;4.35;94.87
46464;BME280;32161;48.148;-1.554;2023-02-12T07:23:36;102817.00;;;4.38;94.80
46464;BME280;32161;48.148;-1.554;2023-02-12T07:26:07;102823.63;;;4.34;94.50
46464;BME280;32161;48.148;-1.554;2023-02-12T07:28:35;102824.75;;;4.32;94.94
46464;BME280;32161;48.148;-1.554;2023-02-12T07:31:07;102829.41;;;4.30;94.65
46464;BME280;32161;48.148;-1.554;2023-02-12T07:33:36;102827.88;;;4.27;94.19
46464;BME280;32161;48.148;-1.554;2023-02-12T07:36:08;102835.09;;;4.27;94.65
46464;BME280;32161;48.148;-1.554;2023-02-12T07:38:38;102837.06;;;4.25;94.08
46464;BME280;32161;48.148;-1.554;2023-02-12T07:41:08;102849.53;;;4.26;93.97
46464;BME280;32161;48.148;-1.554;2023-02-12T07:43:38;102842.59;;;4.23;93.62
46464;BME280;32161;48.148;-1.554;2023-02-12T07:46:13;102849.94;;;4.21;92.99
46464;BME280;32161;48.148;-1.554;2023-02-12T07:48:43;102850.66;;;4.23;93.67
46464;BME280;32161;48.148;-1.554;2023-02-12T07:51:13;102845.41;;;4.22;93.93
46464;BME280;32161;48.148;-1.554;2023-02-12T07:53:42;102848.25;;;4.20;93.72
46464;BME280;32161;48.148;-1.554;2023-02-12T07:56:12;102846.56;;;4.19;93.49
46464;BME280;32161;48.148;-1.554;2023-02-12T07:58:43;102849.09;;;4.21;93.28
46464;BME280;32161;48.148;-1.554;2023-02-12T08:01:14;102842.72;;;4.22;94.39
46464;BME280;32161;48.148;-1.554;2023-02-12T08:03:42;102847.97;;;4.23;94.46
46464;BME280;32161;48.148;-1.554;2023-02-12T08:06:12;102840.47;;;4.27;94.81
46464;BME280;32161;48.148;-1.554;2023-02-12T08:08:42;102840.47;;;4.27;95.27
46464;BME280;32161;48.148;-1.554;2023-02-12T08:11:12;102852.94;;;4.28;95.54
46464;BME280;32161;48.148;-1.554;2023-02-12T08:13:41;102844.59;;;4.31;95.49
46464;BME280;32161;48.148;-1.554;2023-02-12T08:16:11;102837.38;;;4.31;95.63
46464;BME280;32161;48.148;-1.554;2023-02-12T08:18:39;102844.75;;;4.39;95.93
46464;BME280;32161;48.148;-1.554;2023-02-12T08:21:08;102839.38;;;4.39;95.50
46464;BME280;32161;48.148;-1.554;2023-02-12T08:23:37;102841.34;;;4.37;96.07
46464;BME280;32161;48.148;-1.554;2023-02-12T08:26:09;102842.22;;;4.47;95.77
46464;BME280;32161;48.148;-1.554;2023-02-12T08:28:39;102843.34;;;4.45;95.58
46464;BME280;32161;48.148;-1.554;2023-02-12T08:31:11;102848.16;;;4.41;96.27
46464;BME280;32161;48.148;-1.554;2023-02-12T08:33:39;102847.03;;;4.44;96.38
46464;BME280;32161;48.148;-1.554;2023-02-12T08:36:08;102849.72;;;4.44;96.43
46464;BME280;32161;48.148;-1.554;2023-02-12T08:38:37;102853.00;;;4.47;96.42
46464;BME280;32161;48.148;-1.554;2023-02-12T08:41:09;102853.41;;;4.52;96.87
46464;BME280;32161;48.148;-1.554;2023-02-12T08:43:38;102860.13;;;4.58;96.71
46464;BME280;32161;48.148;-1.554;2023-02-12T08:46:08;102866.34;;;4.58;97.23
46464;BME280;32161;48.148;-1.554;2023-02-12T08:48:36;102863.19;;;4.53;97.37
46464;BME280;32161;48.148;-1.554;2023-02-12T08:51:07;102866.88;;;4.52;98.17
46464;BME280;32161;48.148;-1.554;2023-02-12T08:53:35;102864.66;;;4.57;98.51
46464;BME280;32161;48.148;-1.554;2023-02-12T08:56:05;102863.50;;;4.60;98.59
46464;BME280;32161;48.148;-1.554;2023-02-12T08:58:34;102874.69;;;4.65;98.72
46464;BME280;32161;48.148;-1.554;2023-02-12T09:01:02;102870.63;;;4.71;98.84
46464;BME280;32161;48.148;-1.554;2023-02-12T09:03:30;102866.22;;;4.79;98.47
46464;BME280;32161;48.148;-1.554;2023-02-12T09:05:58;102864.25;;;4.91;98.33
46464;BME280;32161;48.148;-1.554;2023-02-12T09:08:28;102871.78;;;4.97;97.41
46464;BME280;32161;48.148;-1.554;2023-02-12T09:10:55;102855.34;;;5.00;97.55
46464;BME280;32161;48.148;-1.554;2023-02-12T09:13:25;102877.00;;;4.99;97.98
46464;BME280;32161;48.148;-1.554;2023-02-12T09:15:52;102868.22;;;5.06;97.76
46464;BME280;32161;48.148;-1.554;2023-02-12T09:18:20;102878.03;;;5.07;98.14
46464;BME280;32161;48.148;-1.554;2023-02-12T09:20:47;102866.81;;;5.12;97.58
46464;BME280;32161;48.148;-1.554;2023-02-12T09:23:15;102861.56;;;5.20;97.50
46464;BME280;32161;48.148;-1.554;2023-02-12T09:25:44;102872.75;;;5.25;97.38
46464;BME280;32161;48.148;-1.554;2023-02-12T09:28:13;102871.63;;;5.28;97.28
46464;BME280;32161;48.148;-1.554;2023-02-12T09:30:42;102875.75;;;5.32;97.04
46464;BME280;32161;48.148;-1.554;2023-02-12T09:33:10;102868.06;;;5.37;97.00
46464;BME280;32161;48.148;-1.554;2023-02-12T09:35:38;102876.28;;;5.55;96.72
46464;BME280;32161;48.148;-1.554;2023-02-12T09:38:07;102871.47;;;5.58;95.58
46464;BME280;32161;48.148;-1.554;2023-02-12T09:40:43;102882.09;;;5.60;95.42
46464;BME280;32161;48.148;-1.554;2023-02-12T09:43:21;102868.03;;;5.66;95.53
46464;BME280;32161;48.148;-1.554;2023-02-12T09:46:01;102868.59;;;5.60;96.23
46464;BME280;32161;48.148;-1.554;2023-02-12T09:48:51;102866.47;;;5.63;96.20
46464;BME280;32161;48.148;-1.554;2023-02-12T09:51:21;102875.13;;;5.67;95.68
46464;BME280;32161;48.148;-1.554;2023-02-12T09:53:53;102872.69;;;5.74;96.48
46464;BME280;32161;48.148;-1.554;2023-02-12T09:56:27;102866.28;;;5.75;95.96
46464;BME280;32161;48.148;-1.554;2023-02-12T09:58:59;102867.69;;;5.79;95.61
46464;BME280;32161;48.148;-1.554;2023-02-12T10:01:29;102861.63;;;5.77;96.61
46464;BME280;32161;48.148;-1.554;2023-02-12T10:03:57;102860.31;;;5.81;96.51
46464;BME280;32161;48.148;-1.554;2023-02-12T10:06:29;102868.53;;;5.89;96.16
46464;BME280;32161;48.148;-1.554;2023-02-12T10:09:15;102866.69;;;5.80;96.50
46464;BME280;32161;48.148;-1.554;2023-02-12T10:12:02;102871.91;;;5.91;96.00
46464;BME280;32161;48.148;-1.554;2023-02-12T10:14:58;102871.09;;;6.00;95.94
46464;BME280;32161;48.148;-1.554;2023-02-12T10:17:39;102872.50;;;6.04;95.45
46464;BME280;32161;48.148;-1.554;2023-02-12T10:23:51;102873.59;;;6.11;96.00
46464;BME280;32161;48.148;-1.554;2023-02-12T10:26:28;102872.81;;;6.29;94.56
46464;BME280;32161;48.148;-1.554;2023-02-12T10:29:00;102878.28;;;6.37;94.51
46464;BME280;32161;48.148;-1.554;2023-02-12T10:31:37;102885.53;;;6.46;93.94
46464;BME280;32161;48.148;-1.554;2023-02-12T10:34:17;102878.00;;;6.40;94.94
46464;BME280;32161;48.148;-1.554;2023-02-12T10:36:47;102879.94;;;6.48;95.47
46464;BME280;32161;48.148;-1.554;2023-02-12T10:39:22;102880.81;;;6.48;95.49
46464;BME280;32161;48.148;-1.554;2023-02-12T10:41:57;102886.16;;;6.58;94.50
46464;BME280;32161;48.148;-1.554;2023-02-12T10:44:28;102870.78;;;6.58;95.14
46464;BME280;32161;48.148;-1.554;2023-02-12T10:46:55;102870.88;;;6.67;94.28
46464;BME280;32161;48.148;-1.554;2023-02-12T10:49:24;102874.97;;;6.71;94.06
46464;BME280;32161;48.148;-1.554;2023-02-12T10:52:11;102871.50;;;6.78;94.34
46464;BME280;32161;48.148;-1.554;2023-02-12T10:54:45;102872.84;;;6.92;93.46
46464;BME280;32161;48.148;-1.554;2023-02-12T10:57:18;102868.00;;;6.96;93.58
46464;BME280;32161;48.148;-1.554;2023-02-12T10:59:50;102873.06;;;6.99;93.23
46464;BME280;32161;48.148;-1.554;2023-02-12T11:02:25;102865.34;;;7.04;94.05
46464;BME280;32161;48.148;-1.554;2023-02-12T11:04:56;102860.88;;;7.13;94.19
46464;BME280;32161;48.148;-1.554;2023-02-12T11:07:25;102866.28;;;7.30;93.31
46464;BME280;32161;48.148;-1.554;2023-02-12T11:09:54;102864.06;;;7.34;92.79
46464;BME280;32161;48.148;-1.554;2023-02-12T11:12:30;102855.88;;;7.44;93.06
46464;BME280;32161;48.148;-1.554;2023-02-12T11:15:00;102850.38;;;7.53;92.05
46464;BME280;32161;48.148;-1.554;2023-02-12T11:17:34;102852.22;;;7.53;92.79
46464;BME280;32161;48.148;-1.554;2023-02-12T11:20:24;102852.06;;;7.54;91.46
46464;BME280;32161;48.148;-1.554;2023-02-12T11:22:57;102843.78;;;7.56;90.43
46464;BME280;32161;48.148;-1.554;2023-02-12T11:25:27;102848.03;;;7.58;90.78
46464;BME280;32161;48.148;-1.554;2023-02-12T11:28:02;102841.47;;;7.61;89.61
46464;BME280;32161;48.148;-1.554;2023-02-12T11:30:31;102827.41;;;7.57;89.43
46464;BME280;32161;48.148;-1.554;2023-02-12T11:33:30;102835.41;;;7.67;90.65
46464;BME280;32161;48.148;-1.554;2023-02-12T11:36:04;102830.41;;;7.80;91.38
46464;BME280;32161;48.148;-1.554;2023-02-12T11:38:46;102828.09;;;7.94;91.09
46464;BME280;32161;48.148;-1.554;2023-02-12T11:41:24;102828.00;;;8.03;89.88
46464;BME280;32161;48.148;-1.554;2023-02-12T11:43:53;102831.06;;;8.08;88.47
46464;BME280;32161;48.148;-1.554;2023-02-12T11:46:23;102827.28;;;8.01;87.34
46464;BME280;32161;48.148;-1.554;2023-02-12T11:48:53;102824.88;;;7.90;88.23
46464;BME280;32161;48.148;-1.554;2023-02-12T11:51:25;102823.53;;;7.94;87.15
46464;BME280;32161;48.148;-1.554;2023-02-12T11:53:56;102819.50;;;7.98;84.93
46464;BME280;32161;48.148;-1.554;2023-02-12T11:56:25;102815.91;;;7.90;85.99
46464;BME280;32161;48.148;-1.554;2023-02-12T11:59:17;102815.91;;;7.90;86.13
46464;BME280;32161;48.148;-1.554;2023-02-12T12:01:47;102814.72;;;7.84;87.44
46464;BME280;32161;48.148;-1.554;2023-02-12T12:04:18;102811.28;;;7.82;87.08
46464;BME280;32161;48.148;-1.554;2023-02-12T12:06:56;102811.47;;;7.80;88.68
46464;BME280;32161;48.148;-1.554;2023-02-12T12:09:28;102810.00;;;7.94;89.50
46464;BME280;32161;48.148;-1.554;2023-02-12T12:12:11;102800.22;;;8.01;90.34
46464;BME280;32161;48.148;-1.554;2023-02-12T12:14:45;102798.59;;;8.17;90.83
46464;BME280;32161;48.148;-1.554;2023-02-12T12:17:42;102797.75;;;8.24;89.12
46464;BME280;32161;48.148;-1.554;2023-02-12T12:20:34;102804.03;;;8.33;87.37
46464;BME280;32161;48.148;-1.554;2023-02-12T12:23:12;102801.66;;;8.30;87.61
46464;BME280;32161;48.148;-1.554;2023-02-12T12:25:47;102799.66;;;8.32;86.55
46464;BME280;32161;48.148;-1.554;2023-02-12T12:28:29;102790.34;;;8.35;86.31
46464;BME280;32161;48.148;-1.554;2023-02-12T12:31:07;102783.63;;;8.39;86.45
46464;BME280;32161;48.148;-1.554;2023-02-12T12:33:43;102775.78;;;8.36;86.49
46464;BME280;32161;48.148;-1.554;2023-02-12T12:36:42;102770.91;;;8.39;87.18
46464;BME280;32161;48.148;-1.554;2023-02-12T12:39:23;102763.31;;;8.43;86.50
46464;BME280;32161;48.148;-1.554;2023-02-12T12:45:29;102746.22;;;8.50;85.79
46464;BME280;32161;48.148;-1.554;2023-02-12T12:48:14;102750.09;;;8.48;85.70
46464;BME280;32161;48.148;-1.554;2023-02-12T12:51:02;102743.84;;;8.64;84.21
46464;BME280;32161;48.148;-1.554;2023-02-12T12:53:46;102736.72;;;8.63;85.32
46464;BME280;32161;48.148;-1.554;2023-02-12T12:56:57;102734.53;;;8.66;85.89
46464;BME280;32161;48.148;-1.554;2023-02-12T13:00:17;102730.47;;;8.62;87.96
46464;BME280;32161;48.148;-1.554;2023-02-12T13:03:33;102722.66;;;8.67;87.50
46464;BME280;32161;48.148;-1.554;2023-02-12T13:06:22;102726.06;;;8.69;86.57
46464;BME280;32161;48.148;-1.554;2023-02-12T13:09:25;102722.16;;;8.88;85.70
46464;BME280;32161;48.148;-1.554;2023-02-12T13:12:34;102716.91;;;8.78;84.70
46464;BME280;32161;48.148;-1.554;2023-02-12T13:15:20;102716.38;;;8.83;84.88
46464;BME280;32161;48.148;-1.554;2023-02-12T13:18:01;102715.38;;;8.92;84.13
46464;BME280;32161;48.148;-1.554;2023-02-12T13:20:39;102715.72;;;8.89;84.36
46464;BME280;32161;48.148;-1.554;2023-02-12T13:23:15;102705.38;;;8.93;84.37
46464;BME280;32161;48.148;-1.554;2023-02-12T13:25:55;102707.56;;;9.05;85.13
46464;BME280;32161;48.148;-1.554;2023-02-12T13:28:33;102704.16;;;9.12;84.52
46464;BME280;32161;48.148;-1.554;2023-02-12T13:31:06;102704.16;;;9.20;84.69